Accueil
METAR-TAF:

METAR-TAF

Aéroports :

Base aérienne

Tafraoui, Algérie

latitude: 35-32-33N, longitude: 000-31-56W, altitude: 112 m

Observation

Le bulletin a été fait il y a 1 heure et 18 minutes, à 15:00 UTC
Vent 14 kt de ouest
Température 17°C
Humidité 55%
Pression 1026 hPa
Visibilité 10 km ou plus
pas de nuages en-dessous de 1500 mètres et pas de cumulonimbus.

METAR: DAOL 151500Z 27014KT CAVOK 17/08 Q1026

Heure: 17:18 (16:18 UTC)


TAF: absent

Observations et prévisions météorologiques de plus de 4000 aéroports (messages METAR et TAF).

Les stations disponibles sont représentées par des disques jaunes et rouges sur la carte.

Passer la souris dessus pour voir le nom de la station.

Cliquer dessus pour voir les observations et prévisions météorologiques.

Pour changer de carte: cliquez sur les boutons verts avec une croix noire pour zoomer, sur le bouton vert avec un tiret pour effectuer un zoom arrière, ou sur les flèches vertes pour les cartes adjacentes.


METAR-TAF: